LDZD/ZAD METAR and TAF weather

Enter ICAO airport designator
Station Type Date Time Source
LDZD METAR 2019/10/23 02:00 UTC NOAA

LDZD 230200Z 00000KT 0200 R13/0325N FG NSC 15/15 Q1020 NOSIG


Station Type Date Time Source
LDZD Decoded METAR 2019/10/23 02:00 UTC NOAA

Zadar / Zemunik, Croatia (LDZD) 44-06N 015-21E
Oct 22, 2019 - 10:00 PM EDT / 2019.10.23 0200 UTC
Wind: Calm:0
Visibility: less than 1 mile:0
Weather: fog
Temperature: 59 F (15 C)
Dew Point: 59 F (15 C)
Relative Humidity: 100%
Pressure (altimeter): 30.12 in. Hg (1020 hPa)
ob: LDZD 230200Z 00000KT 0200 R13/0325N FG NSC 15/15 Q1020 NOSIG
cycle: 2

Station Type Date Time Source
LDZD TAF 2019/10/22 18:27 UTC NOAA

TAF LDZD 221725Z 2218/2318 VRB02KT CAVOK TX25/2313Z TN10/2305Z
BECMG 2218/2220 3000 BCFG
TEMPO 2221/2306 0800 PROB40
TEMPO 2221/2306 0400 FG
BECMG 2306/2308 CAVOK PROB40
TEMPO 2310/2315 24007KT

Example: see airport list